Time;durP1;ratioP1;P1;durP2;ratioP2;P2;SDS_P1;SDS_P2;PMS_P1;PMS_P2;Temp;Humidity;BMP_temperature;BMP_pressure;BME280_temperature;BME280_humidity;BME280_pressure;Samples;Min_cycle;Max_cycle;Signal;HPM_P1;HPM_P2
2023/04/11 00:00:36;;;;;;;0.55;0.55;;;10.40;99.90;;;;;;5099477;27;20495;-67
2023/04/11 00:03:02;;;;;;;0.47;0.47;;;10.40;99.90;;;;;;5101405;27;20464;-67
2023/04/11 00:05:32;;;;;;;0.20;0.20;;;10.20;99.90;;;;;;5109700;27;20430;-68
2023/04/11 00:07:59;;;;;;;0.30;0.30;;;10.10;99.90;;;;;;5104363;27;20966;-67
2023/04/11 00:10:26;;;;;;;0.43;0.43;;;10.00;99.90;;;;;;5118209;27;20416;-67
2023/04/11 00:12:55;;;;;;;0.30;0.30;;;9.90;99.90;;;;;;5091092;27;20507;-68
2023/04/11 00:15:25;;;;;;;0.38;0.38;;;9.80;99.90;;;;;;5117407;27;20844;-68
2023/04/11 00:17:53;;;;;;;0.40;0.40;;;9.70;99.90;;;;;;5104816;28;20496;-68
2023/04/11 00:20:21;;;;;;;0.20;0.20;;;9.60;99.90;;;;;;5092073;28;20456;-68
2023/04/11 00:22:47;;;;;;;0.30;0.30;;;9.50;99.90;;;;;;5111887;27;20482;-68
2023/04/11 00:25:14;;;;;;;0.52;0.38;;;9.50;99.90;;;;;;5104937;27;20433;-68
2023/04/11 00:27:42;;;;;;;0.28;0.28;;;9.50;99.90;;;;;;5107692;27;20440;-68
2023/04/11 00:30:09;;;;;;;0.75;0.30;;;9.40;99.90;;;;;;5113359;27;20522;-68
2023/04/11 00:32:36;;;;;;;0.10;0.10;;;9.40;99.90;;;;;;5107246;27;20969;-68
2023/04/11 00:35:07;;;;;;;0.30;0.20;;;9.40;99.90;;;;;;5112383;27;20429;-68
2023/04/11 00:37:35;;;;;;;0.40;0.40;;;9.30;99.90;;;;;;5097815;27;20780;-68
2023/04/11 00:40:04;;;;;;;0.30;0.22;;;9.30;99.90;;;;;;5097233;28;20427;-68
2023/04/11 00:42:32;;;;;;;1.40;0.50;;;9.30;99.90;;;;;;5114092;27;20414;-68
2023/04/11 00:44:58;;;;;;;0.30;0.30;;;9.20;99.90;;;;;;5110799;27;20494;-68
2023/04/11 00:47:25;;;;;;;0.20;0.20;;;9.20;99.90;;;;;;5114881;27;20433;-68
2023/04/11 00:49:54;;;;;;;0.10;0.10;;;9.20;99.90;;;;;;5108361;27;20419;-68
2023/04/11 00:52:21;;;;;;;0.30;0.30;;;9.20;99.90;;;;;;5095254;28;20437;-68
2023/04/11 00:54:48;;;;;;;0.20;0.20;;;9.20;99.90;;;;;;5097235;28;20415;-68
2023/04/11 00:57:14;;;;;;;0.20;0.20;;;9.20;99.90;;;;;;5101601;27;20424;-68
2023/04/11 00:59:43;;;;;;;0.40;0.40;;;9.20;99.90;;;;;;5103735;27;21038;-69
2023/04/11 01:02:10;;;;;;;0.20;0.20;;;9.30;99.90;;;;;;5114543;27;20807;-69
2023/04/11 01:04:37;;;;;;;0.30;0.30;;;9.30;99.90;;;;;;5119942;27;20514;-69
2023/04/11 01:07:06;;;;;;;0.22;0.22;;;9.30;99.90;;;;;;5119704;27;20930;-69
2023/04/11 01:09:34;;;;;;;0.30;0.30;;;9.20;99.90;;;;;;5105011;27;20449;-68
2023/04/11 01:12:05;;;;;;;0.60;0.25;;;9.30;99.90;;;;;;5120517;27;20426;-68
2023/04/11 01:14:32;;;;;;;0.20;0.20;;;9.20;99.90;;;;;;5099132;28;20427;-68
2023/04/11 01:17:00;;;;;;;0.70;0.25;;;9.20;99.90;;;;;;5101631;27;20433;-68
2023/04/11 01:19:30;;;;;;;0.20;0.20;;;9.20;99.90;;;;;;5114053;28;21109;-68
2023/04/11 01:21:59;;;;;;;0.30;0.20;;;9.20;99.90;;;;;;5102384;28;20434;-68
2023/04/11 01:24:27;;;;;;;1.10;0.50;;;9.10;99.90;;;;;;5091914;27;20425;-68
2023/04/11 01:26:55;;;;;;;0.20;0.20;;;9.00;99.90;;;;;;5109197;28;20433;-68
2023/04/11 01:29:22;;;;;;;0.10;0.10;;;9.00;99.90;;;;;;5092126;28;20995;-68
2023/04/11 01:31:50;;;;;;;0.32;0.28;;;8.90;99.90;;;;;;5101920;28;20418;-68
2023/04/11 01:34:18;;;;;;;0.20;0.20;;;8.80;99.90;;;;;;5095484;27;20903;-68
2023/04/11 01:36:47;;;;;;;0.30;0.30;;;8.70;99.90;;;;;;5100199;27;21171;-69
2023/04/11 01:39:14;;;;;;;0.20;0.20;;;8.60;99.90;;;;;;5109640;28;20911;-68
2023/04/11 01:41:42;;;;;;;0.10;0.10;;;8.50;99.90;;;;;;5094290;28;20451;-68
2023/04/11 01:44:09;;;;;;;0.27;0.27;;;8.50;99.90;;;;;;5097973;28;20914;-68
2023/04/11 01:46:42;;;;;;;0.30;0.30;;;8.40;99.90;;;;;;5096107;28;20458;-68
2023/04/11 01:49:09;;;;;;;0.20;0.20;;;8.40;1.00;;;;;;5110031;28;20429;-68
2023/04/11 01:51:36;;;;;;;0.30;0.30;;;8.40;60.20;;;;;;5099772;28;20424;-68
2023/04/11 01:54:03;;;;;;;0.20;0.20;;;8.40;99.90;;;;;;5117506;28;20814;-68
2023/04/11 01:56:30;;;;;;;0.20;0.20;;;8.30;1.00;;;;;;5101232;27;21917;-68
2023/04/11 01:58:57;;;;;;;0.25;0.25;;;8.30;1.00;;;;;;5097299;28;20416;-68
2023/04/11 02:01:25;;;;;;;1.60;0.20;;;8.20;99.90;;;;;;5106134;28;20435;-69
2023/04/11 02:03:52;;;;;;;0.10;0.10;;;8.20;99.90;;;;;;5115674;27;20428;-69
2023/04/11 02:06:19;;;;;;;0.20;0.20;;;8.20;1.00;;;;;;5110784;28;20914;-69
2023/04/11 02:08:46;;;;;;;0.20;0.20;;;8.10;1.00;;;;;;5113067;28;20529;-69
2023/04/11 02:11:18;;;;;;;0.20;0.20;;;8.10;1.00;;;;;;5111004;28;20436;-69
2023/04/11 02:13:45;;;;;;;0.30;0.30;;;8.00;1.00;;;;;;5117229;28;20835;-69
2023/04/11 02:16:13;;;;;;;0.10;0.10;;;8.00;1.00;;;;;;5107298;27;20428;-69
2023/04/11 02:18:42;;;;;;;0.30;0.30;;;8.00;12.50;;;;;;5088775;28;20428;-69
2023/04/11 02:21:09;;;;;;;0.20;0.20;;;8.00;54.20;;;;;;5110991;28;20538;-69
2023/04/11 02:23:36;;;;;;;0.10;0.10;;;7.90;74.20;;;;;;5114846;28;20429;-70
2023/04/11 02:26:03;;;;;;;0.10;0.10;;;7.90;99.90;;;;;;5113486;27;20538;-70
2023/04/11 02:28:30;;;;;;;0.10;0.10;;;7.90;99.90;;;;;;5090622;28;20903;-70
2023/04/11 02:30:57;;;;;;;0.50;0.43;;;7.90;99.90;;;;;;5108104;27;20473;-69
2023/04/11 02:33:26;;;;;;;0.20;0.20;;;7.80;99.90;;;;;;5116082;27;20430;-70
2023/04/11 02:35:53;;;;;;;0.70;0.23;;;7.80;99.90;;;;;;5114599;27;20451;-69
2023/04/11 02:38:20;;;;;;;0.10;0.10;;;7.70;99.90;;;;;;5112340;27;20761;-70
2023/04/11 02:40:47;;;;;;;1.90;0.30;;;7.70;99.90;;;;;;5112889;27;20432;-67
2023/04/11 02:43:15;;;;;;;0.13;0.13;;;7.70;99.90;;;;;;5109133;27;20418;-68
2023/04/11 02:45:41;;;;;;;0.30;0.30;;;7.70;99.90;;;;;;5118266;27;20424;-68
2023/04/11 02:48:08;;;;;;;0.20;0.20;;;7.60;99.90;;;;;;5102485;28;21025;-69
2023/04/11 02:50:35;;;;;;;0.10;0.10;;;7.60;99.90;;;;;;5117332;27;20428;-69
2023/04/11 02:53:01;;;;;;;0.13;0.13;;;7.60;99.90;;;;;;5106645;27;20421;-69
2023/04/11 02:55:28;;;;;;;0.28;0.28;;;7.60;99.90;;;;;;5113081;27;20794;-69
2023/04/11 02:57:55;;;;;;;0.10;0.10;;;7.60;99.90;;;;;;5120443;27;20429;-69
2023/04/11 03:00:22;;;;;;;0.10;0.10;;;7.60;99.90;;;;;;5113137;27;20508;-70
2023/04/11 03:02:48;;;;;;;0.10;0.10;;;7.60;99.90;;;;;;5111850;27;20424;-70
2023/04/11 03:05:15;;;;;;;1.90;0.13;;;7.50;99.90;;;;;;5115242;27;20429;-70
2023/04/11 03:07:43;;;;;;;0.10;0.10;;;7.50;99.90;;;;;;5116458;27;20517;-70
2023/04/11 03:10:10;;;;;;;0.10;0.10;;;7.50;99.90;;;;;;5125421;27;20931;-70
2023/04/11 03:12:37;;;;;;;0.20;0.20;;;7.50;99.90;;;;;;5111577;27;20981;-70
2023/04/11 03:15:04;;;;;;;0.20;0.20;;;7.50;99.90;;;;;;5103948;27;20428;-70
2023/04/11 03:17:31;;;;;;;0.50;0.20;;;7.50;99.90;;;;;;5108831;27;20518;-70
2023/04/11 03:19:57;;;;;;;0.20;0.20;;;7.50;1.00;;;;;;5100423;28;20428;-70
2023/04/11 03:22:24;;;;;;;0.20;0.20;;;7.50;1.00;;;;;;5098230;28;20437;-70
2023/04/11 03:24:51;;;;;;;0.30;0.30;;;7.50;1.00;;;;;;5109771;27;20452;-70
2023/04/11 03:27:18;;;;;;;0.20;0.20;;;7.50;1.00;;;;;;5120261;27;20424;-70
2023/04/11 03:29:45;;;;;;;0.10;0.10;;;7.50;1.00;;;;;;5111343;27;20435;-70
2023/04/11 03:32:14;;;;;;;0.20;0.20;;;7.50;1.00;;;;;;5108831;27;20425;-70
2023/04/11 03:34:41;;;;;;;2.80;0.40;;;7.40;1.00;;;;;;5119965;27;20892;-70
2023/04/11 03:37:08;;;;;;;0.13;0.13;;;7.40;1.00;;;;;;5114576;27;20773;-70
2023/04/11 03:39:37;;;;;;;0.20;0.20;;;7.30;1.00;;;;;;5107070;27;20530;-70
2023/04/11 03:42:04;;;;;;;0.10;0.10;;;7.30;1.00;;;;;;5111565;27;20809;-70
2023/04/11 03:44:31;;;;;;;0.20;0.20;;;7.30;1.00;;;;;;5119977;27;20414;-70
2023/04/11 03:46:58;;;;;;;0.20;0.20;;;7.30;1.00;;;;;;5113414;27;20451;-70
2023/04/11 03:49:24;;;;;;;0.22;0.20;;;7.30;1.00;;;;;;5104459;27;20425;-70
2023/04/11 03:51:51;;;;;;;0.20;0.20;;;7.30;1.00;;;;;;5112274;27;20437;-70
2023/04/11 03:54:18;;;;;;;0.10;0.10;;;7.30;1.00;;;;;;5099182;27;20932;-70
2023/04/11 03:56:47;;;;;;;0.10;0.10;;;7.30;1.00;;;;;;5120108;27;20481;-70
2023/04/11 03:59:17;;;;;;;0.30;0.30;;;7.30;1.00;;;;;;5112869;27;20800;-70
2023/04/11 04:01:44;;;;;;;0.20;0.20;;;7.30;1.00;;;;;;5117748;27;20422;-70
2023/04/11 04:04:11;;;;;;;0.10;0.10;;;7.30;1.00;;;;;;5107136;27;20432;-70
2023/04/11 04:06:38;;;;;;;0.10;0.10;;;7.30;1.00;;;;;;5096173;27;20456;-70
2023/04/11 04:09:05;;;;;;;0.20;0.20;;;7.20;1.00;;;;;;5111025;27;20938;-70
2023/04/11 04:11:32;;;;;;;0.23;0.10;;;7.20;1.00;;;;;;5118154;27;20434;-70
2023/04/11 04:14:01;;;;;;;0.20;0.20;;;7.20;1.00;;;;;;5094389;27;20418;-70
2023/04/11 04:16:27;;;;;;;0.17;0.17;;;7.20;1.00;;;;;;5120319;27;20491;-70
2023/04/11 04:18:54;;;;;;;0.10;0.10;;;7.20;1.00;;;;;;5117418;27;20474;-70
2023/04/11 04:21:25;;;;;;;0.40;0.20;;;7.10;1.00;;;;;;5114221;27;20908;-70
2023/04/11 04:23:52;;;;;;;0.13;0.13;;;7.10;1.00;;;;;;5095815;28;20455;-70
2023/04/11 04:26:23;;;;;;;0.10;0.10;;;7.10;1.00;;;;;;5096294;28;20428;-70
2023/04/11 04:28:52;;;;;;;0.10;0.10;;;7.10;1.00;;;;;;5104390;27;20461;-70
2023/04/11 04:31:24;;;;;;;0.10;0.10;;;7.10;1.00;;;;;;5104387;27;20453;-70
2023/04/11 04:33:51;;;;;;;0.10;0.10;;;7.00;1.00;;;;;;5094673;28;20442;-70
2023/04/11 04:36:17;;;;;;;0.17;0.17;;;7.00;1.00;;;;;;5111531;27;20425;-70
2023/04/11 04:38:46;;;;;;;0.10;0.10;;;6.90;1.00;;;;;;5107545;27;20418;-71
2023/04/11 04:41:16;;;;;;;0.25;0.25;;;6.80;1.00;;;;;;5112938;27;20483;-70
2023/04/11 04:43:42;;;;;;;0.20;0.20;;;6.70;1.00;;;;;;5092079;28;20875;-70
2023/04/11 04:46:10;;;;;;;0.10;0.10;;;6.60;1.00;;;;;;5104277;28;20432;-70
2023/04/11 04:48:37;;;;;;;0.20;0.20;;;6.50;1.00;;;;;;5107675;28;20503;-70
2023/04/11 04:51:04;;;;;;;0.30;0.30;;;6.50;1.00;;;;;;5110449;27;20819;-70
2023/04/11 04:53:33;;;;;;;0.10;0.10;;;6.40;1.00;;;;;;5097430;28;20432;-70
2023/04/11 04:56:01;;;;;;;0.32;0.32;;;6.40;1.00;;;;;;5101203;27;20763;-70
2023/04/11 04:58:28;;;;;;;0.20;0.20;;;6.40;1.00;;;;;;5117529;27;21114;-70
2023/04/11 05:00:55;;;;;;;0.28;0.28;;;6.30;1.00;;;;;;5105490;28;20504;-70
2023/04/11 05:03:22;;;;;;;0.20;0.20;;;6.40;1.00;;;;;;5110676;28;20424;-70
2023/04/11 05:05:51;;;;;;;0.50;0.50;;;6.40;1.00;;;;;;5102678;27;20427;-70
2023/04/11 05:08:21;;;;;;;0.10;0.10;;;6.40;1.00;;;;;;5089284;28;20803;-70
2023/04/11 05:10:48;;;;;;;0.40;0.40;;;6.40;1.00;;;;;;5092190;27;20437;-70
2023/04/11 05:13:16;;;;;;;0.30;0.30;;;6.40;1.00;;;;;;5111931;27;20469;-70
2023/04/11 05:15:47;;;;;;;0.30;0.30;;;6.40;1.00;;;;;;5102530;28;20457;-70
2023/04/11 05:18:14;;;;;;;0.30;0.30;;;6.30;1.00;;;;;;5100560;28;20434;-70
2023/04/11 05:20:41;;;;;;;0.30;0.30;;;6.40;1.00;;;;;;5093764;27;20435;-70
2023/04/11 05:23:08;;;;;;;0.20;0.20;;;6.40;1.00;;;;;;5090644;28;20465;-70
2023/04/11 05:25:34;;;;;;;0.20;0.20;;;6.40;1.00;;;;;;5110986;28;20511;-70
2023/04/11 05:28:01;;;;;;;0.17;0.17;;;6.50;1.00;;;;;;5106772;28;20477;-69
2023/04/11 05:30:28;;;;;;;0.22;0.22;;;6.50;1.00;;;;;;5109275;28;20420;-69
2023/04/11 05:32:55;;;;;;;0.25;0.17;;;6.60;1.00;;;;;;5103416;27;20416;-69
2023/04/11 05:35:22;;;;;;;0.10;0.10;;;6.70;1.00;;;;;;5094245;28;20426;-69
2023/04/11 05:37:51;;;;;;;0.43;0.43;;;6.80;1.00;;;;;;5096426;28;20604;-69
2023/04/11 05:40:18;;;;;;;0.30;0.30;;;6.90;1.00;;;;;;5096611;28;20423;-69
2023/04/11 05:42:45;;;;;;;0.60;0.60;;;7.10;99.90;;;;;;5095341;28;20915;-69
2023/04/11 05:45:12;;;;;;;0.30;0.30;;;7.30;99.90;;;;;;5093807;28;20433;-69
2023/04/11 05:47:38;;;;;;;0.20;0.20;;;7.50;99.90;;;;;;5102444;28;20442;-69
2023/04/11 05:50:06;;;;;;;1.70;0.35;;;7.70;48.30;;;;;;5115623;28;20990;-69
2023/04/11 05:52:32;;;;;;;0.95;0.20;;;7.80;1.00;;;;;;5117782;28;20441;-69
2023/04/11 05:55:03;;;;;;;0.40;0.40;;;7.90;36.00;;;;;;5093507;28;20421;-68
2023/04/11 05:57:30;;;;;;;1.00;0.40;;;7.90;74.30;;;;;;5101007;28;20515;-68
2023/04/11 06:00:00;;;;;;;0.90;0.30;;;8.00;1.00;;;;;;5107583;28;20854;-68
2023/04/11 06:02:27;;;;;;;1.70;0.30;;;8.10;1.00;;;;;;5117416;27;20439;-68
2023/04/11 06:04:54;;;;;;;0.20;0.20;;;8.20;99.90;;;;;;5112653;27;20518;-68
2023/04/11 06:07:23;;;;;;;0.40;0.40;;;8.20;99.90;;;;;;5105028;27;20418;-69
2023/04/11 06:09:50;;;;;;;0.30;0.30;;;8.30;99.90;;;;;;5095295;28;20424;-69
2023/04/11 06:12:17;;;;;;;0.20;0.20;;;8.40;99.90;;;;;;5104722;27;20709;-69
2023/04/11 06:14:43;;;;;;;0.20;0.20;;;8.40;99.90;;;;;;5117183;27;20815;-69
2023/04/11 06:17:10;;;;;;;0.40;0.40;;;8.40;99.90;;;;;;5102916;27;21247;-67
2023/04/11 06:19:37;;;;;;;0.20;0.20;;;8.40;99.90;;;;;;5093392;27;20441;-69
2023/04/11 06:22:04;;;;;;;0.20;0.20;;;8.50;99.90;;;;;;5099471;28;20450;-69
2023/04/11 06:24:38;;;;;;;0.30;0.30;;;8.50;99.90;;;;;;5107513;28;21188;-68
2023/04/11 06:27:05;;;;;;;0.22;0.22;;;8.50;99.90;;;;;;5102243;27;20420;-69
2023/04/11 06:29:32;;;;;;;0.20;0.20;;;8.50;99.90;;;;;;5103695;28;20431;-69
2023/04/11 06:31:59;;;;;;;0.30;0.30;;;8.50;99.90;;;;;;5094773;27;20424;-69
2023/04/11 06:34:26;;;;;;;0.32;0.32;;;8.60;99.90;;;;;;5100549;27;20439;-70
2023/04/11 06:36:53;;;;;;;2.10;0.70;;;8.80;99.90;;;;;;5099662;28;20425;-69
2023/04/11 06:39:20;;;;;;;1.40;0.30;;;9.00;99.90;;;;;;5095881;27;20544;-69
2023/04/11 06:41:48;;;;;;;0.20;0.20;;;9.30;99.90;;;;;;5105937;28;21113;-70
2023/04/11 06:44:14;;;;;;;0.20;0.20;;;9.80;99.90;;;;;;5102392;27;20935;-69
2023/04/11 06:46:41;;;;;;;1.40;0.25;;;10.10;99.90;;;;;;5091745;27;20491;-69
2023/04/11 06:49:09;;;;;;;0.20;0.20;;;10.70;99.90;;;;;;5093730;28;20461;-69
2023/04/11 06:51:36;;;;;;;2.40;0.57;;;11.30;99.90;;;;;;5095879;28;20422;-69
2023/04/11 06:54:05;;;;;;;0.93;0.32;;;11.80;99.90;;;;;;5095278;28;20433;-69
2023/04/11 06:56:32;;;;;;;0.30;0.30;;;12.10;99.90;;;;;;5097660;27;20434;-70
2023/04/11 06:58:58;;;;;;;0.20;0.20;;;12.60;99.90;;;;;;5112553;27;20430;-69
2023/04/11 07:01:29;;;;;;;0.40;0.40;;;13.00;99.90;;;;;;5097878;27;20422;-69
2023/04/11 07:03:57;;;;;;;0.88;0.30;;;13.10;99.90;;;;;;5100349;27;20422;-70
2023/04/11 07:06:25;;;;;;;1.30;0.38;;;13.30;99.90;;;;;;5103592;27;20963;-68
2023/04/11 07:08:52;;;;;;;2.10;0.40;;;13.40;99.90;;;;;;5108259;27;20431;-68
2023/04/11 07:11:20;;;;;;;0.70;0.20;;;13.40;99.90;;;;;;5097621;27;20810;-69
2023/04/11 07:13:49;;;;;;;0.38;0.30;;;13.20;99.90;;;;;;5092290;27;20434;-68
2023/04/11 07:16:16;;;;;;;0.50;0.50;;;13.20;99.90;;;;;;5094444;28;20483;-64
2023/04/11 07:18:43;;;;;;;0.60;0.60;;;13.10;99.90;;;;;;5104635;27;20947;-64
2023/04/11 07:21:12;;;;;;;1.17;0.80;;;13.20;99.90;;;;;;5102126;27;20424;-64
2023/04/11 07:23:39;;;;;;;0.50;0.30;;;13.40;99.90;;;;;;5088905;27;20423;-64
2023/04/11 07:26:10;;;;;;;0.50;0.50;;;13.50;99.90;;;;;;5117254;27;20500;-65
2023/04/11 07:28:38;;;;;;;2.70;0.90;;;13.70;99.90;;;;;;5095551;27;20517;-65
2023/04/11 07:31:07;;;;;;;0.80;0.50;;;13.40;99.90;;;;;;5087273;28;20878;-64
2023/04/11 07:33:35;;;;;;;0.30;0.30;;;13.10;99.90;;;;;;5104353;28;20433;-64
2023/04/11 07:36:06;;;;;;;1.45;0.40;;;12.60;99.90;;;;;;5108531;27;20518;-64
2023/04/11 07:38:33;;;;;;;0.90;0.70;;;12.60;99.90;;;;;;5113117;27;21130;-64
2023/04/11 07:41:03;;;;;;;0.28;0.28;;;13.00;99.90;;;;;;5098701;28;20463;-64
2023/04/11 07:43:30;;;;;;;0.30;0.30;;;13.30;99.90;;;;;;5095092;27;20438;-64
2023/04/11 07:45:58;;;;;;;0.75;0.50;;;13.40;99.90;;;;;;5113064;27;20497;-63
2023/04/11 07:48:26;;;;;;;3.30;0.28;;;13.30;99.90;;;;;;5101556;27;20724;-63
2023/04/11 07:50:54;;;;;;;1.25;0.45;;;13.30;99.90;;;;;;5099460;27;20427;-63
2023/04/11 07:53:21;;;;;;;1.70;0.43;;;13.30;99.90;;;;;;5103816;27;20434;-63
2023/04/11 07:55:48;;;;;;;0.45;0.30;;;13.40;99.90;;;;;;5103282;27;20932;-63
2023/04/11 07:58:14;;;;;;;0.40;0.40;;;13.50;99.90;;;;;;5110226;27;20421;-63
2023/04/11 08:00:41;;;;;;;4.50;0.40;;;13.70;99.90;;;;;;5090466;27;20435;-63
2023/04/11 08:03:12;;;;;;;0.40;0.40;;;14.20;99.90;;;;;;5116081;27;20432;-63
2023/04/11 08:05:42;;;;;;;0.30;0.30;;;14.00;99.90;;;;;;5117525;27;20433;-62
2023/04/11 08:08:09;;;;;;;0.80;0.20;;;13.60;99.90;;;;;;5100523;27;20430;-63
2023/04/11 08:10:36;;;;;;;1.15;0.35;;;13.20;99.90;;;;;;5113598;27;20422;-63
2023/04/11 08:13:02;;;;;;;1.70;0.30;;;13.10;99.90;;;;;;5097062;27;20946;-63
2023/04/11 08:15:30;;;;;;;1.67;0.57;;;13.70;99.90;;;;;;5128955;27;20557;-63
2023/04/11 08:17:58;;;;;;;0.50;0.30;;;13.80;99.90;;;;;;5113796;27;20426;-63
2023/04/11 08:20:25;;;;;;;0.25;0.25;;;13.30;99.90;;;;;;5102924;27;20452;-62
2023/04/11 08:22:52;;;;;;;0.20;0.20;;;13.00;99.90;;;;;;5106308;27;20424;-62
2023/04/11 08:25:21;;;;;;;5.30;0.45;;;12.70;99.90;;;;;;5110510;27;20430;-63
2023/04/11 08:27:49;;;;;;;10.90;1.10;;;12.50;99.90;;;;;;5097674;27;20433;-63
2023/04/11 08:30:16;;;;;;;3.70;0.40;;;12.10;99.90;;;;;;5098169;27;20432;-62
2023/04/11 08:32:46;;;;;;;0.50;0.40;;;11.80;99.90;;;;;;5100768;27;20497;-63
2023/04/11 08:35:13;;;;;;;0.90;0.50;;;11.60;99.90;;;;;;5101640;27;21198;-64
2023/04/11 08:37:40;;;;;;;0.40;0.30;;;11.50;99.90;;;;;;5094342;28;20448;-64
2023/04/11 08:40:07;;;;;;;0.20;0.20;;;11.50;99.90;;;;;;5116001;27;20923;-64
2023/04/11 08:42:34;;;;;;;0.20;0.20;;;11.40;99.90;;;;;;5097088;27;20493;-69
2023/04/11 08:45:07;;;;;;;0.60;0.60;;;11.70;99.90;;;;;;5095842;27;20429;-70
2023/04/11 08:47:35;;;;;;;3.00;0.28;;;11.90;99.90;;;;;;5097251;28;20440;-69
2023/04/11 08:50:07;;;;;;;0.40;0.30;;;12.00;99.90;;;;;;5078923;28;20480;-69
2023/04/11 08:52:36;;;;;;;0.30;0.30;;;11.80;99.90;;;;;;5086377;28;20460;-69
2023/04/11 08:55:04;;;;;;;0.50;0.40;;;11.80;99.90;;;;;;5093574;28;20439;-70
2023/04/11 08:57:31;;;;;;;0.20;0.20;;;12.10;99.90;;;;;;5100038;27;20426;-68
2023/04/11 09:00:07;;;;;;;1.70;0.47;;;12.40;99.90;;;;;;5096508;27;20426;-69
2023/04/11 09:02:34;;;;;;;0.88;0.88;;;12.50;99.90;;;;;;5098720;27;20959;-67
2023/04/11 09:05:01;;;;;;;0.80;0.20;;;12.60;99.90;;;;;;5110419;27;20505;-69
2023/04/11 09:07:28;;;;;;;2.40;0.55;;;12.50;99.90;;;;;;5109244;27;20973;-69
2023/04/11 09:09:55;;;;;;;0.20;0.20;;;12.40;99.90;;;;;;5098186;28;20422;-69
2023/04/11 09:12:28;;;;;;;1.58;0.30;;;12.40;99.90;;;;;;5108287;27;21151;-69
2023/04/11 09:14:55;;;;;;;1.70;0.20;;;12.40;99.90;;;;;;5088624;28;20517;-70
2023/04/11 09:17:22;;;;;;;2.35;0.40;;;12.50;99.90;;;;;;5115063;28;20783;-69
2023/04/11 09:19:49;;;;;;;0.30;0.30;;;12.60;99.90;;;;;;5114862;28;20453;-69
2023/04/11 09:22:15;;;;;;;0.30;0.20;;;12.70;99.90;;;;;;5113399;27;20503;-70
2023/04/11 09:24:42;;;;;;;0.55;0.30;;;12.70;99.90;;;;;;5104329;27;20955;-69
2023/04/11 09:27:15;;;;;;;0.20;0.20;;;12.90;99.90;;;;;;5090779;28;20898;-69
2023/04/11 09:29:47;;;;;;;0.60;0.60;;;12.90;99.90;;;;;;5093868;28;20517;-70
2023/04/11 09:32:32;;;;;;;0.45;0.30;;;13.00;99.90;;;;;;5098827;28;20456;-70
2023/04/11 09:35:10;;;;;;;0.30;0.30;;;12.90;99.90;;;;;;5094197;28;20874;-69
2023/04/11 09:37:43;;;;;;;0.20;0.20;;;13.00;99.90;;;;;;5104621;28;20519;-69
2023/04/11 09:40:15;;;;;;;1.63;0.43;;;12.90;99.90;;;;;;5097045;27;20429;-69
2023/04/11 09:42:42;;;;;;;0.90;0.40;;;13.00;99.90;;;;;;5096639;27;20448;-69
2023/04/11 09:45:20;;;;;;;0.75;0.22;;;12.90;99.90;;;;;;5096766;28;20440;-70
2023/04/11 09:47:48;;;;;;;0.90;0.50;;;13.20;99.90;;;;;;5103109;27;20414;-66
2023/04/11 09:50:16;;;;;;;0.90;0.40;;;13.70;99.90;;;;;;5110569;27;20427;-67
2023/04/11 09:52:44;;;;;;;1.40;0.30;;;14.30;99.90;;;;;;5113545;27;20756;-68
2023/04/11 09:55:13;;;;;;;0.80;0.23;;;14.70;99.90;;;;;;5118051;27;20422;-69
2023/04/11 09:57:44;;;;;;;0.35;0.28;;;15.30;99.90;;;;;;5108033;27;20543;-69
2023/04/11 10:00:20;;;;;;;0.43;0.30;;;16.00;99.90;;;;;;5101831;28;20428;-68
2023/04/11 10:02:51;;;;;;;0.30;0.30;;;16.50;99.90;;;;;;5101043;28;20456;-69
2023/04/11 10:05:25;;;;;;;1.00;0.57;;;16.80;99.90;;;;;;5099120;28;20488;-70
2023/04/11 10:08:31;;;;;;;0.20;0.20;;;16.70;99.90;;;;;;5095078;27;20428;-68
2023/04/11 10:10:59;;;;;;;0.60;0.50;;;16.10;99.90;;;;;;5096299;27;20493;-68
2023/04/11 10:13:39;;;;;;;0.30;0.30;;;15.10;99.90;;;;;;5101699;27;21099;-68
2023/04/11 10:16:17;;;;;;;0.40;0.40;;;14.20;99.90;;;;;;5091684;28;20982;-68
2023/04/11 10:18:53;;;;;;;1.00;0.30;;;13.40;99.90;;;;;;5101428;27;20459;-69
2023/04/11 10:21:31;;;;;;;1.85;0.52;;;12.00;99.90;;;;;;5101936;27;20425;-70
2023/04/11 10:24:14;;;;;;;1.38;0.28;;;10.90;99.90;;;;;;5109812;27;20839;-69
2023/04/11 10:26:58;;;;;;;0.40;0.30;;;10.80;99.90;;;;;;5108058;27;21090;-69
2023/04/11 10:29:31;;;;;;;1.00;0.40;;;11.80;99.90;;;;;;5108110;27;20478;-68
2023/04/11 10:32:11;;;;;;;0.30;0.30;;;13.00;99.90;;;;;;5107956;27;20459;-68
2023/04/11 10:34:59;;;;;;;1.38;0.40;;;14.00;99.90;;;;;;5102888;27;20429;-69
2023/04/11 10:37:29;;;;;;;2.30;0.43;;;14.70;99.90;;;;;;5122031;27;20422;-70
2023/04/11 10:40:11;;;;;;;0.25;0.25;;;15.30;99.90;;;;;;5118114;27;20910;-68
2023/04/11 10:42:42;;;;;;;1.23;0.10;;;15.40;99.90;;;;;;5091560;28;20468;-67
2023/04/11 10:45:26;;;;;;;0.50;0.40;;;15.30;99.90;;;;;;5102911;27;20425;-69
2023/04/11 10:47:55;;;;;;;2.30;0.40;;;15.50;99.90;;;;;;5091531;28;20506;-69
2023/04/11 10:50:25;;;;;;;0.25;0.25;;;16.00;99.90;;;;;;5093586;27;20426;-69
2023/04/11 10:53:00;;;;;;;2.40;0.45;;;16.30;99.90;;;;;;5113511;27;20455;-69
2023/04/11 10:55:28;;;;;;;0.40;0.40;;;16.10;99.90;;;;;;5104965;27;20430;-68
2023/04/11 10:58:20;;;;;;;0.80;0.30;;;15.70;99.90;;;;;;5116225;27;20517;-69
2023/04/11 11:03:19;;;;;;;0.30;0.30;;;14.60;99.90;;;;;;5111891;27;20426;-69
2023/04/11 11:05:46;;;;;;;0.70;0.30;;;14.50;99.90;;;;;;5102734;27;20429;-69
2023/04/11 11:08:13;;;;;;;0.10;0.10;;;15.10;99.90;;;;;;5107185;27;20430;-68
2023/04/11 11:10:47;;;;;;;0.40;0.30;;;15.50;99.90;;;;;;5121310;27;20919;-67
2023/04/11 11:13:15;;;;;;;0.22;0.22;;;15.50;99.90;;;;;;5102628;27;20438;-68
2023/04/11 11:15:49;;;;;;;1.80;0.40;;;15.50;99.90;;;;;;5102634;27;20457;-69
2023/04/11 11:18:17;;;;;;;1.08;0.30;;;15.50;99.90;;;;;;5102824;27;20432;-69
2023/04/11 11:20:43;;;;;;;0.30;0.30;;;15.60;99.90;;;;;;5106354;27;20449;-68
2023/04/11 11:23:10;;;;;;;0.50;0.20;;;16.20;99.90;;;;;;5103618;27;20443;-67
2023/04/11 11:25:37;;;;;;;0.28;0.28;;;16.40;99.90;;;;;;5110284;27;20529;-69
2023/04/11 11:28:07;;;;;;;0.22;0.22;;;16.30;99.90;;;;;;5104879;27;20853;-69
2023/04/11 11:30:48;;;;;;;0.28;0.28;;;16.40;99.90;;;;;;5093706;28;20420;-68
2023/04/11 11:33:19;;;;;;;0.50;0.30;;;16.40;99.90;;;;;;5098924;27;20420;-69
2023/04/11 11:35:59;;;;;;;0.20;0.20;;;16.30;99.90;;;;;;5100701;27;20425;-68
2023/04/11 11:38:28;;;;;;;0.90;0.50;;;16.50;99.90;;;;;;5103900;27;20505;-68
2023/04/11 11:40:56;;;;;;;0.22;0.22;;;16.50;99.90;;;;;;5095109;27;20486;-69
2023/04/11 11:43:26;;;;;;;1.40;0.50;;;16.60;99.90;;;;;;5101081;28;20422;-68
2023/04/11 11:46:09;;;;;;;0.50;0.30;;;16.90;99.90;;;;;;5104932;27;20501;-68
2023/04/11 11:48:37;;;;;;;0.28;0.28;;;17.10;99.90;;;;;;5101439;27;20571;-68
2023/04/11 11:51:04;;;;;;;0.15;0.15;;;17.10;99.90;;;;;;5112571;27;20434;-68
2023/04/11 11:53:31;;;;;;;2.08;0.40;;;17.00;99.90;;;;;;5112193;27;20432;-68
2023/04/11 11:55:58;;;;;;;0.20;0.20;;;17.00;99.30;;;;;;5100183;28;20515;-69
2023/04/11 11:58:25;;;;;;;0.63;0.63;;;17.00;99.40;;;;;;5102950;27;20440;-68
2023/04/11 12:00:52;;;;;;;0.30;0.30;;;17.00;99.60;;;;;;5112021;27;20462;-68
2023/04/11 12:03:23;;;;;;;0.60;0.40;;;17.30;99.30;;;;;;5093902;27;20452;-68
2023/04/11 12:05:54;;;;;;;0.30;0.30;;;17.40;98.60;;;;;;5107521;27;20435;-68
2023/04/11 12:08:21;;;;;;;0.20;0.20;;;17.80;99.60;;;;;;5125873;27;20469;-68
2023/04/11 12:10:50;;;;;;;0.95;0.40;;;18.40;98.40;;;;;;5099221;28;20417;-68
2023/04/11 12:13:22;;;;;;;1.10;0.60;;;18.70;97.20;;;;;;5094304;27;20515;-67
2023/04/11 12:15:51;;;;;;;0.47;0.47;;;18.50;97.10;;;;;;5106092;27;20433;-68
2023/04/11 12:18:26;;;;;;;0.50;0.30;;;18.00;97.10;;;;;;5109737;27;20459;-69
2023/04/11 12:20:53;;;;;;;0.60;0.28;;;18.10;96.60;;;;;;5099346;27;20437;-68
2023/04/11 12:23:21;;;;;;;2.28;0.40;;;18.70;96.30;;;;;;5102378;27;20427;-68
2023/04/11 12:25:48;;;;;;;0.20;0.20;;;19.10;94.30;;;;;;5101418;27;20418;-69
2023/04/11 12:28:15;;;;;;;0.40;0.40;;;18.90;95.20;;;;;;5118720;27;20428;-67
2023/04/11 12:30:41;;;;;;;0.20;0.20;;;19.40;95.10;;;;;;5107699;27;20521;-67
2023/04/11 12:33:08;;;;;;;0.80;0.30;;;19.70;94.00;;;;;;5112691;27;20936;-67
2023/04/11 12:35:37;;;;;;;1.83;0.30;;;19.80;93.70;;;;;;5095305;27;20762;-66
2023/04/11 12:38:03;;;;;;;1.70;0.30;;;19.60;92.40;;;;;;5100631;27;20422;-66
2023/04/11 12:40:33;;;;;;;0.90;0.40;;;19.50;92.70;;;;;;5106516;27;20507;-66
2023/04/11 12:43:00;;;;;;;0.55;0.40;;;19.50;92.40;;;;;;5100374;27;20451;-67
2023/04/11 12:45:27;;;;;;;0.20;0.20;;;19.40;92.20;;;;;;5111822;27;20468;-67
2023/04/11 12:47:56;;;;;;;0.40;0.20;;;19.50;91.30;;;;;;5099688;27;20871;-67
2023/04/11 12:50:23;;;;;;;0.50;0.30;;;19.50;90.60;;;;;;5093019;28;20435;-66
2023/04/11 12:52:50;;;;;;;0.60;0.20;;;19.30;91.00;;;;;;5095008;28;20424;-67
2023/04/11 12:55:17;;;;;;;3.00;0.20;;;18.80;92.00;;;;;;5094332;27;20417;-67
2023/04/11 12:57:44;;;;;;;0.20;0.20;;;18.60;91.00;;;;;;5107405;27;20500;-60
2023/04/11 13:00:12;;;;;;;0.13;0.13;;;18.50;91.00;;;;;;5084028;27;20450;-61
2023/04/11 13:02:38;;;;;;;0.45;0.15;;;18.50;90.30;;;;;;5099493;27;20414;-61
2023/04/11 13:05:13;;;;;;;1.20;0.50;;;17.90;90.00;;;;;;5098165;27;20932;-61